sensor_id;sensor_type;location;lat;lon;timestamp;pressure;altitude;pressure_sealevel;temperature
41654;BMP280;30790;52.030;7.110;2022-07-06T00:01:37;101739.22;;;22.83
41654;BMP280;30790;52.030;7.110;2022-07-06T00:04:02;101731.00;;;22.83
41654;BMP280;30790;52.030;7.110;2022-07-06T00:06:28;101735.75;;;22.88
41654;BMP280;30790;52.030;7.110;2022-07-06T00:08:53;101738.84;;;22.79
41654;BMP280;30790;52.030;7.110;2022-07-06T00:11:19;101737.56;;;22.82
41654;BMP280;30790;52.030;7.110;2022-07-06T00:13:44;101733.75;;;22.83
41654;BMP280;30790;52.030;7.110;2022-07-06T00:16:09;101730.19;;;22.83
41654;BMP280;30790;52.030;7.110;2022-07-06T00:18:35;101731.25;;;22.81
41654;BMP280;30790;52.030;7.110;2022-07-06T00:21:00;101718.09;;;22.72
41654;BMP280;30790;52.030;7.110;2022-07-06T00:23:25;101728.72;;;22.80
41654;BMP280;30790;52.030;7.110;2022-07-06T00:25:51;101728.13;;;22.78
41654;BMP280;30790;52.030;7.110;2022-07-06T00:28:16;101731.00;;;22.83
41654;BMP280;30790;52.030;7.110;2022-07-06T00:30:42;101729.19;;;22.77
41654;BMP280;30790;52.030;7.110;2022-07-06T00:33:07;101727.06;;;22.79
41654;BMP280;30790;52.030;7.110;2022-07-06T00:35:33;101732.91;;;22.83
41654;BMP280;30790;52.030;7.110;2022-07-06T00:37:58;101726.81;;;22.80
41654;BMP280;30790;52.030;7.110;2022-07-06T00:40:23;101722.31;;;22.74
41654;BMP280;30790;52.030;7.110;2022-07-06T00:42:49;101731.94;;;22.77
41654;BMP280;30790;52.030;7.110;2022-07-06T00:45:16;101740.28;;;22.82
41654;BMP280;30790;52.030;7.110;2022-07-06T00:47:42;101746.84;;;22.81
41654;BMP280;30790;52.030;7.110;2022-07-06T00:50:11;101736.09;;;22.79
41654;BMP280;30790;52.030;7.110;2022-07-06T00:52:46;101748.50;;;22.82
41654;BMP280;30790;52.030;7.110;2022-07-06T00:55:13;101748.13;;;22.78
41654;BMP280;30790;52.030;7.110;2022-07-06T00:57:39;101742.28;;;22.75
41654;BMP280;30790;52.030;7.110;2022-07-06T01:00:07;101745.16;;;22.80
41654;BMP280;30790;52.030;7.110;2022-07-06T01:02:34;101736.00;;;22.74
41654;BMP280;30790;52.030;7.110;2022-07-06T01:05:00;101746.22;;;22.79
41654;BMP280;30790;52.030;7.110;2022-07-06T01:07:25;101747.28;;;22.78
41654;BMP280;30790;52.030;7.110;2022-07-06T01:09:53;101739.56;;;22.75
41654;BMP280;30790;52.030;7.110;2022-07-06T01:12:18;101736.34;;;22.78
41654;BMP280;30790;52.030;7.110;2022-07-06T01:14:44;101739.31;;;22.76
41654;BMP280;30790;52.030;7.110;2022-07-06T01:17:10;101741.81;;;22.78
41654;BMP280;30790;52.030;7.110;2022-07-06T01:19:36;101731.09;;;22.76
41654;BMP280;30790;52.030;7.110;2022-07-06T01:22:01;101726.94;;;22.74
41654;BMP280;30790;52.030;7.110;2022-07-06T01:24:27;101723.34;;;22.73
41654;BMP280;30790;52.030;7.110;2022-07-06T01:26:52;101731.94;;;22.77
41654;BMP280;30790;52.030;7.110;2022-07-06T01:29:18;101730.50;;;22.74
41654;BMP280;30790;52.030;7.110;2022-07-06T01:31:48;101719.56;;;22.74
41654;BMP280;30790;52.030;7.110;2022-07-06T01:34:15;101723.72;;;22.77
41654;BMP280;30790;52.030;7.110;2022-07-06T01:36:40;101726.69;;;22.75
41654;BMP280;30790;52.030;7.110;2022-07-06T01:39:08;101727.53;;;22.76
41654;BMP280;30790;52.030;7.110;2022-07-06T01:41:34;101721.22;;;22.75
41654;BMP280;30790;52.030;7.110;2022-07-06T01:43:59;101726.69;;;22.75
41654;BMP280;30790;52.030;7.110;2022-07-06T01:46:24;101714.53;;;22.71
41654;BMP280;30790;52.030;7.110;2022-07-06T01:48:50;101722.06;;;22.76
41654;BMP280;30790;52.030;7.110;2022-07-06T01:51:15;101717.03;;;22.73
41654;BMP280;30790;52.030;7.110;2022-07-06T01:53:40;101721.22;;;22.75
41654;BMP280;30790;52.030;7.110;2022-07-06T01:56:06;101723.13;;;22.75
41654;BMP280;30790;52.030;7.110;2022-07-06T01:58:32;101722.75;;;22.71
41654;BMP280;30790;52.030;7.110;2022-07-06T02:00:57;101721.69;;;22.72
41654;BMP280;30790;52.030;7.110;2022-07-06T02:03:23;101721.69;;;22.72
41654;BMP280;30790;52.030;7.110;2022-07-06T02:05:48;101707.53;;;22.64
41654;BMP280;30790;52.030;7.110;2022-07-06T02:08:13;101716.31;;;22.66
41654;BMP280;30790;52.030;7.110;2022-07-06T02:10:39;101720.84;;;22.72
41654;BMP280;30790;52.030;7.110;2022-07-06T02:13:05;101723.34;;;22.73
41654;BMP280;30790;52.030;7.110;2022-07-06T02:15:30;101712.50;;;22.67
41654;BMP280;30790;52.030;7.110;2022-07-06T02:17:55;101722.50;;;22.73
41654;BMP280;30790;52.030;7.110;2022-07-06T02:20:21;101721.69;;;22.72
41654;BMP280;30790;52.030;7.110;2022-07-06T02:22:46;101720.00;;;22.71
41654;BMP280;30790;52.030;7.110;2022-07-06T02:25:11;101704.66;;;22.70
41654;BMP280;30790;52.030;7.110;2022-07-06T02:27:37;101714.19;;;22.68
41654;BMP280;30790;52.030;7.110;2022-07-06T02:30:02;101718.09;;;22.72
41654;BMP280;30790;52.030;7.110;2022-07-06T02:32:27;101716.91;;;22.68
41654;BMP280;30790;52.030;7.110;2022-07-06T02:34:53;101726.78;;;22.69
41654;BMP280;30790;52.030;7.110;2022-07-06T02:37:18;101720.25;;;22.70
41654;BMP280;30790;52.030;7.110;2022-07-06T02:39:43;101724.66;;;22.71
41654;BMP280;30790;52.030;7.110;2022-07-06T02:42:09;101726.78;;;22.69
41654;BMP280;30790;52.030;7.110;2022-07-06T02:44:34;101724.06;;;22.69
41654;BMP280;30790;52.030;7.110;2022-07-06T02:46:59;101727.28;;;22.66
41654;BMP280;30790;52.030;7.110;2022-07-06T02:49:25;101723.81;;;22.70
41654;BMP280;30790;52.030;7.110;2022-07-06T02:51:50;101722.97;;;22.70
41654;BMP280;30790;52.030;7.110;2022-07-06T02:54:15;101724.06;;;22.69
41654;BMP280;30790;52.030;7.110;2022-07-06T02:56:41;101732.28;;;22.69
41654;BMP280;30790;52.030;7.110;2022-07-06T02:59:06;101731.44;;;22.68
41654;BMP280;30790;52.030;7.110;2022-07-06T03:01:31;101724.78;;;22.64
41654;BMP280;30790;52.030;7.110;2022-07-06T03:03:56;101726.19;;;22.67
41654;BMP280;30790;52.030;7.110;2022-07-06T03:06:22;101724.53;;;22.66
41654;BMP280;30790;52.030;7.110;2022-07-06T03:08:47;101739.41;;;22.70
41654;BMP280;30790;52.030;7.110;2022-07-06T03:11:12;101738.81;;;22.68
41654;BMP280;30790;52.030;7.110;2022-07-06T03:13:38;101740.97;;;22.66
41654;BMP280;30790;52.030;7.110;2022-07-06T03:16:03;101736.06;;;22.68
41654;BMP280;30790;52.030;7.110;2022-07-06T03:18:28;101736.06;;;22.68
41654;BMP280;30790;52.030;7.110;2022-07-06T03:20:54;101737.75;;;22.69
41654;BMP280;30790;52.030;7.110;2022-07-06T03:23:19;101739.66;;;22.68
41654;BMP280;30790;52.030;7.110;2022-07-06T03:25:45;101739.88;;;22.67
41654;BMP280;30790;52.030;7.110;2022-07-06T03:28:11;101726.09;;;22.62
41654;BMP280;30790;52.030;7.110;2022-07-06T03:30:36;101733.22;;;22.63
41654;BMP280;30790;52.030;7.110;2022-07-06T03:33:01;101731.06;;;22.65
41654;BMP280;30790;52.030;7.110;2022-07-06T03:35:26;101731.06;;;22.65
41654;BMP280;30790;52.030;7.110;2022-07-06T03:37:52;101742.38;;;22.68
41654;BMP280;30790;52.030;7.110;2022-07-06T03:40:17;101727.75;;;22.63
41654;BMP280;30790;52.030;7.110;2022-07-06T03:42:42;101732.97;;;22.64
41654;BMP280;30790;52.030;7.110;2022-07-06T03:45:08;101740.97;;;22.66
41654;BMP280;30790;52.030;7.110;2022-07-06T03:47:34;101718.22;;;22.54
41654;BMP280;30790;52.030;7.110;2022-07-06T03:49:59;101729.06;;;22.60
41654;BMP280;30790;52.030;7.110;2022-07-06T03:52:24;101737.63;;;22.64
41654;BMP280;30790;52.030;7.110;2022-07-06T03:54:50;101733.22;;;22.63
41654;BMP280;30790;52.030;7.110;2022-07-06T03:57:15;101742.03;;;22.65
41654;BMP280;30790;52.030;7.110;2022-07-06T03:59:40;101751.91;;;22.66
41654;BMP280;30790;52.030;7.110;2022-07-06T04:02:06;101735.72;;;22.64
41654;BMP280;30790;52.030;7.110;2022-07-06T04:04:33;101750.00;;;22.66
41654;BMP280;30790;52.030;7.110;2022-07-06T04:06:58;101740.34;;;22.64
41654;BMP280;30790;52.030;7.110;2022-07-06T04:09:24;101740.34;;;22.64
41654;BMP280;30790;52.030;7.110;2022-07-06T04:11:49;101745.00;;;22.63
41654;BMP280;30790;52.030;7.110;2022-07-06T04:14:14;101740.59;;;22.62
41654;BMP280;30790;52.030;7.110;2022-07-06T04:16:39;101739.78;;;22.62
41654;BMP280;30790;52.030;7.110;2022-07-06T04:19:05;101747.50;;;22.65
41654;BMP280;30790;52.030;7.110;2022-07-06T04:21:30;101746.66;;;22.64
41654;BMP280;30790;52.030;7.110;2022-07-06T04:23:55;101735.00;;;22.57
41654;BMP280;30790;52.030;7.110;2022-07-06T04:26:21;101735.38;;;22.61
41654;BMP280;30790;52.030;7.110;2022-07-06T04:28:46;101737.50;;;22.59
41654;BMP280;30790;52.030;7.110;2022-07-06T04:31:11;101744.75;;;22.65
41654;BMP280;30790;52.030;7.110;2022-07-06T04:33:40;101742.50;;;22.62
41654;BMP280;30790;52.030;7.110;2022-07-06T04:36:06;101740.84;;;22.61
41654;BMP280;30790;52.030;7.110;2022-07-06T04:38:31;101736.19;;;22.61
41654;BMP280;30790;52.030;7.110;2022-07-06T04:40:57;101731.56;;;22.62
41654;BMP280;30790;52.030;7.110;2022-07-06T04:43:22;101734.53;;;22.60
41654;BMP280;30790;52.030;7.110;2022-07-06T04:45:47;101734.78;;;22.59
41654;BMP280;30790;52.030;7.110;2022-07-06T04:48:12;101734.53;;;22.60
41654;BMP280;30790;52.030;7.110;2022-07-06T04:50:38;101735.72;;;22.52
41654;BMP280;30790;52.030;7.110;2022-07-06T04:53:03;101744.25;;;22.33
41654;BMP280;30790;52.030;7.110;2022-07-06T04:55:29;101737.69;;;22.22
41654;BMP280;30790;52.030;7.110;2022-07-06T04:57:54;101730.88;;;22.13
41654;BMP280;30790;52.030;7.110;2022-07-06T05:00:20;101739.41;;;22.05
41654;BMP280;30790;52.030;7.110;2022-07-06T05:02:46;101736.28;;;22.01
41654;BMP280;30790;52.030;7.110;2022-07-06T05:05:11;101749.28;;;22.06
41654;BMP280;30790;52.030;7.110;2022-07-06T05:07:36;101741.75;;;22.01
41654;BMP280;30790;52.030;7.110;2022-07-06T05:10:06;101736.22;;;21.89
41654;BMP280;30790;52.030;7.110;2022-07-06T05:12:32;101732.41;;;21.90
41654;BMP280;30790;52.030;7.110;2022-07-06T05:14:57;101742.75;;;21.88
41654;BMP280;30790;52.030;7.110;2022-07-06T05:17:22;101745.13;;;21.85
41654;BMP280;30790;52.030;7.110;2022-07-06T05:19:48;101743.44;;;21.84
41654;BMP280;30790;52.030;7.110;2022-07-06T05:22:13;101738.06;;;21.77
41654;BMP280;30790;52.030;7.110;2022-07-06T05:24:38;101739.88;;;21.83
41654;BMP280;30790;52.030;7.110;2022-07-06T05:27:04;101744.47;;;21.71
41654;BMP280;30790;52.030;7.110;2022-07-06T05:29:29;101747.94;;;21.78
41654;BMP280;30790;52.030;7.110;2022-07-06T05:31:54;101747.19;;;21.71
41654;BMP280;30790;52.030;7.110;2022-07-06T05:34:20;101738.94;;;21.59
41654;BMP280;30790;52.030;7.110;2022-07-06T05:36:45;101742.72;;;21.58
41654;BMP280;30790;52.030;7.110;2022-07-06T05:39:10;101746.59;;;21.51
41654;BMP280;30790;52.030;7.110;2022-07-06T05:41:36;101744.47;;;21.53
41654;BMP280;30790;52.030;7.110;2022-07-06T05:44:01;101759.94;;;21.59
41654;BMP280;30790;52.030;7.110;2022-07-06T05:46:26;101755.41;;;21.53
41654;BMP280;30790;52.030;7.110;2022-07-06T05:48:53;101749.94;;;21.53
41654;BMP280;30790;52.030;7.110;2022-07-06T05:51:37;101757.06;;;21.54
41654;BMP280;30790;52.030;7.110;2022-07-06T05:54:02;101765.88;;;21.56
41654;BMP280;30790;52.030;7.110;2022-07-06T05:56:27;101758.38;;;21.51
41654;BMP280;30790;52.030;7.110;2022-07-06T05:58:53;101761.34;;;21.50
41654;BMP280;30790;52.030;7.110;2022-07-06T06:01:18;101774.63;;;21.46
41654;BMP280;30790;52.030;7.110;2022-07-06T06:03:43;101764.28;;;21.48
41654;BMP280;30790;52.030;7.110;2022-07-06T06:06:09;101757.25;;;21.41
41654;BMP280;30790;52.030;7.110;2022-07-06T06:08:34;101762.09;;;21.57
41654;BMP280;30790;52.030;7.110;2022-07-06T06:10:59;101774.22;;;21.61
41654;BMP280;30790;52.030;7.110;2022-07-06T06:13:24;101776.66;;;21.69
41654;BMP280;30790;52.030;7.110;2022-07-06T06:15:50;101779.53;;;21.74
41654;BMP280;30790;52.030;7.110;2022-07-06T06:18:15;101782.88;;;21.76
41654;BMP280;30790;52.030;7.110;2022-07-06T06:20:42;101787.44;;;21.64
41654;BMP280;30790;52.030;7.110;2022-07-06T06:23:07;101778.94;;;21.54
41654;BMP280;30790;52.030;7.110;2022-07-06T06:25:35;101785.09;;;21.49
41654;BMP280;30790;52.030;7.110;2022-07-06T06:28:04;101790.59;;;21.61
41654;BMP280;30790;52.030;7.110;2022-07-06T06:30:30;101791.84;;;21.65
41654;BMP280;30790;52.030;7.110;2022-07-06T06:33:06;101790.09;;;21.71
41654;BMP280;30790;52.030;7.110;2022-07-06T06:35:32;101792.59;;;21.72
41654;BMP280;30790;52.030;7.110;2022-07-06T06:37:57;101790.78;;;21.66
41654;BMP280;30790;52.030;7.110;2022-07-06T06:40:23;101789.72;;;21.67
41654;BMP280;30790;52.030;7.110;2022-07-06T06:42:48;101788.88;;;21.67
41654;BMP280;30790;52.030;7.110;2022-07-06T06:45:13;101786.06;;;21.73
41654;BMP280;30790;52.030;7.110;2022-07-06T06:47:39;101781.19;;;21.75
41654;BMP280;30790;52.030;7.110;2022-07-06T06:50:04;101795.59;;;21.82
41654;BMP280;30790;52.030;7.110;2022-07-06T06:52:30;101795.75;;;21.87
41654;BMP280;30790;52.030;7.110;2022-07-06T06:54:55;101794.84;;;21.94
41654;BMP280;30790;52.030;7.110;2022-07-06T06:57:20;101791.50;;;21.92
41654;BMP280;30790;52.030;7.110;2022-07-06T06:59:45;101794.03;;;21.93
41654;BMP280;30790;52.030;7.110;2022-07-06T07:02:11;101798.41;;;21.94
41654;BMP280;30790;52.030;7.110;2022-07-06T07:04:36;101802.59;;;21.97
41654;BMP280;30790;52.030;7.110;2022-07-06T07:07:02;101797.34;;;21.95
41654;BMP280;30790;52.030;7.110;2022-07-06T07:09:27;101801.97;;;21.95
41654;BMP280;30790;52.030;7.110;2022-07-06T07:11:52;101814.50;;;22.02
41654;BMP280;30790;52.030;7.110;2022-07-06T07:14:18;101813.06;;;22.00
41654;BMP280;30790;52.030;7.110;2022-07-06T07:16:43;101796.06;;;21.98
41654;BMP280;30790;52.030;7.110;2022-07-06T07:19:08;101807.34;;;22.01
41654;BMP280;30790;52.030;7.110;2022-07-06T07:21:33;101811.56;;;22.04
41654;BMP280;30790;52.030;7.110;2022-07-06T07:23:59;101816.56;;;22.07
41654;BMP280;30790;52.030;7.110;2022-07-06T07:26:24;101814.91;;;22.06
41654;BMP280;30790;52.030;7.110;2022-07-06T07:28:49;101814.50;;;22.02
41654;BMP280;30790;52.030;7.110;2022-07-06T07:31:14;101817.22;;;22.02
41654;BMP280;30790;52.030;7.110;2022-07-06T07:33:40;101812.81;;;22.01
41654;BMP280;30790;52.030;7.110;2022-07-06T07:36:05;101813.91;;;22.00
41654;BMP280;30790;52.030;7.110;2022-07-06T07:38:31;101825.22;;;22.04
41654;BMP280;30790;52.030;7.110;2022-07-06T07:40:56;101823.09;;;22.06
41654;BMP280;30790;52.030;7.110;2022-07-06T07:43:21;101818.69;;;22.05
41654;BMP280;30790;52.030;7.110;2022-07-06T07:45:47;101817.63;;;22.06
41654;BMP280;30790;52.030;7.110;2022-07-06T07:48:13;101823.69;;;22.08
41654;BMP280;30790;52.030;7.110;2022-07-06T07:50:40;101827.03;;;22.10
41654;BMP280;30790;52.030;7.110;2022-07-06T07:53:05;101828.69;;;22.11
41654;BMP280;30790;52.030;7.110;2022-07-06T07:55:31;101817.16;;;22.09
41654;BMP280;30790;52.030;7.110;2022-07-06T07:57:56;101817.75;;;22.11
41654;BMP280;30790;52.030;7.110;2022-07-06T08:00:21;101821.69;;;22.15
41654;BMP280;30790;52.030;7.110;2022-07-06T08:02:47;101810.63;;;22.10
41654;BMP280;30790;52.030;7.110;2022-07-06T08:05:12;101810.63;;;22.10
41654;BMP280;30790;52.030;7.110;2022-07-06T08:07:41;101809.09;;;22.14
41654;BMP280;30790;52.030;7.110;2022-07-06T08:10:06;101804.22;;;22.16
41654;BMP280;30790;52.030;7.110;2022-07-06T08:12:32;101804.22;;;22.16
41654;BMP280;30790;52.030;7.110;2022-07-06T08:14:57;101809.94;;;22.14
41654;BMP280;30790;52.030;7.110;2022-07-06T08:17:24;101810.94;;;22.20
41654;BMP280;30790;52.030;7.110;2022-07-06T08:19:49;101798.75;;;22.16
41654;BMP280;30790;52.030;7.110;2022-07-06T08:22:14;101804.22;;;22.16
41654;BMP280;30790;52.030;7.110;2022-07-06T08:24:39;101805.47;;;22.20
41654;BMP280;30790;52.030;7.110;2022-07-06T08:27:05;101803.78;;;22.19
41654;BMP280;30790;52.030;7.110;2022-07-06T08:29:30;101801.25;;;22.17
41654;BMP280;30790;52.030;7.110;2022-07-06T08:31:56;101796.63;;;22.18
41654;BMP280;30790;52.030;7.110;2022-07-06T08:34:22;101802.72;;;22.20
41654;BMP280;30790;52.030;7.110;2022-07-06T08:36:47;101802.09;;;22.18
41654;BMP280;30790;52.030;7.110;2022-07-06T08:39:13;101800.81;;;22.20
41654;BMP280;30790;52.030;7.110;2022-07-06T08:41:41;101801.66;;;22.21
41654;BMP280;30790;52.030;7.110;2022-07-06T08:44:07;101794.53;;;22.20
41654;BMP280;30790;52.030;7.110;2022-07-06T08:46:35;101777.22;;;22.08
41654;BMP280;30790;52.030;7.110;2022-07-06T08:49:03;101796.19;;;22.21
41654;BMP280;30790;52.030;7.110;2022-07-06T08:51:30;101809.88;;;22.21
41654;BMP280;30790;52.030;7.110;2022-07-06T08:53:55;101806.28;;;22.20
41654;BMP280;30790;52.030;7.110;2022-07-06T08:56:22;101802.72;;;22.20
41654;BMP280;30790;52.030;7.110;2022-07-06T08:58:48;101779.72;;;22.09
41654;BMP280;30790;52.030;7.110;2022-07-06T09:01:14;101798.91;;;22.21
41654;BMP280;30790;52.030;7.110;2022-07-06T09:03:43;101800.81;;;22.20
41654;BMP280;30790;52.030;7.110;2022-07-06T09:06:10;101799.16;;;22.19
41654;BMP280;30790;52.030;7.110;2022-07-06T09:08:40;101793.06;;;22.17
41654;BMP280;30790;52.030;7.110;2022-07-06T09:11:05;101798.75;;;22.16
41654;BMP280;30790;52.030;7.110;2022-07-06T09:13:31;101794.13;;;22.16
41654;BMP280;30790;52.030;7.110;2022-07-06T09:16:09;101798.75;;;22.16
41654;BMP280;30790;52.030;7.110;2022-07-06T09:18:37;101809.34;;;22.12
41654;BMP280;30790;52.030;7.110;2022-07-06T09:21:03;101799.47;;;22.11
41654;BMP280;30790;52.030;7.110;2022-07-06T09:23:28;101796.97;;;22.10
41654;BMP280;30790;52.030;7.110;2022-07-06T09:25:54;101800.53;;;22.10
41654;BMP280;30790;52.030;7.110;2022-07-06T09:28:20;101796.72;;;22.11
41654;BMP280;30790;52.030;7.110;2022-07-06T09:30:45;101794.22;;;22.10
41654;BMP280;30790;52.030;7.110;2022-07-06T09:33:10;101778.75;;;22.04
41654;BMP280;30790;52.030;7.110;2022-07-06T09:35:38;101798.16;;;22.14
41654;BMP280;30790;52.030;7.110;2022-07-06T09:38:14;101769.91;;;22.02
41654;BMP280;30790;52.030;7.110;2022-07-06T09:40:44;101802.09;;;22.18
41654;BMP280;30790;52.030;7.110;2022-07-06T09:43:15;101805.66;;;22.18
41654;BMP280;30790;52.030;7.110;2022-07-06T09:45:43;101804.63;;;22.19
41654;BMP280;30790;52.030;7.110;2022-07-06T09:48:11;101789.81;;;22.09
41654;BMP280;30790;52.030;7.110;2022-07-06T09:50:45;101803.03;;;22.12
41654;BMP280;30790;52.030;7.110;2022-07-06T09:53:12;101801.06;;;22.19
41654;BMP280;30790;52.030;7.110;2022-07-06T09:55:37;101807.34;;;22.19
41654;BMP280;30790;52.030;7.110;2022-07-06T09:58:03;101801.06;;;22.19
41654;BMP280;30790;52.030;7.110;2022-07-06T10:00:29;101789.97;;;22.14
41654;BMP280;30790;52.030;7.110;2022-07-06T10:02:54;101797.03;;;22.22
41654;BMP280;30790;52.030;7.110;2022-07-06T10:05:21;101800.59;;;22.22
41654;BMP280;30790;52.030;7.110;2022-07-06T10:07:56;101807.13;;;22.21
41654;BMP280;30790;52.030;7.110;2022-07-06T10:10:25;101793.88;;;22.18
41654;BMP280;30790;52.030;7.110;2022-07-06T10:12:52;101798.31;;;22.19
41654;BMP280;30790;52.030;7.110;2022-07-06T10:15:21;101792.47;;;22.15
41654;BMP280;30790;52.030;7.110;2022-07-06T10:17:47;101792.69;;;22.14
41654;BMP280;30790;52.030;7.110;2022-07-06T10:20:15;101794.97;;;22.17
41654;BMP280;30790;52.030;7.110;2022-07-06T10:22:40;101803.78;;;22.19
41654;BMP280;30790;52.030;7.110;2022-07-06T10:25:06;101787.44;;;22.12
41654;BMP280;30790;52.030;7.110;2022-07-06T10:27:32;101791.84;;;22.13
41654;BMP280;30790;52.030;7.110;2022-07-06T10:30:00;101797.25;;;22.20
41654;BMP280;30790;52.030;7.110;2022-07-06T10:32:26;101767.81;;;22.04
41654;BMP280;30790;52.030;7.110;2022-07-06T10:34:53;101789.97;;;22.14
41654;BMP280;30790;52.030;7.110;2022-07-06T10:37:26;101796.03;;;22.16
41654;BMP280;30790;52.030;7.110;2022-07-06T10:39:52;101803.84;;;22.12
41654;BMP280;30790;52.030;7.110;2022-07-06T10:42:47;101795.06;;;22.10
41654;BMP280;30790;52.030;7.110;2022-07-06T10:50:41;101793.75;;;22.13
41654;BMP280;30790;52.030;7.110;2022-07-06T10:53:13;101791.72;;;22.08
41654;BMP280;30790;52.030;7.110;2022-07-06T10:55:41;101794.59;;;22.13
41654;BMP280;30790;52.030;7.110;2022-07-06T10:58:08;101781.63;;;22.09
41654;BMP280;30790;52.030;7.110;2022-07-06T11:00:59;101789.97;;;22.14
41654;BMP280;30790;52.030;7.110;2022-07-06T11:05:59;101779.63;;;22.16
41654;BMP280;30790;52.030;7.110;2022-07-06T11:11:25;101768.25;;;22.19
41654;BMP280;30790;52.030;7.110;2022-07-06T11:14:00;101770.97;;;22.19
41654;BMP280;30790;52.030;7.110;2022-07-06T11:16:28;101756.22;;;22.20
41654;BMP280;30790;52.030;7.110;2022-07-06T11:19:11;101762.78;;;22.19
41654;BMP280;30790;52.030;7.110;2022-07-06T11:24:09;101764.88;;;22.17
41654;BMP280;30790;52.030;7.110;2022-07-06T11:26:36;101775.38;;;22.20
41654;BMP280;30790;52.030;7.110;2022-07-06T11:29:04;101775.97;;;22.22
41654;BMP280;30790;52.030;7.110;2022-07-06T11:31:33;101774.31;;;22.21
41654;BMP280;30790;52.030;7.110;2022-07-06T11:33:58;101769.38;;;22.11
41654;BMP280;30790;52.030;7.110;2022-07-06T11:36:24;101773.53;;;22.14
41654;BMP280;30790;52.030;7.110;2022-07-06T11:38:49;101768.31;;;22.12
41654;BMP280;30790;52.030;7.110;2022-07-06T11:41:16;101766.66;;;22.11
41654;BMP280;30790;52.030;7.110;2022-07-06T11:43:43;101778.53;;;22.17
41654;BMP280;30790;52.030;7.110;2022-07-06T11:46:24;101765.94;;;22.16
41654;BMP280;30790;52.030;7.110;2022-07-06T11:48:52;101768.00;;;22.20
41654;BMP280;30790;52.030;7.110;2022-07-06T11:51:18;101753.34;;;22.15
41654;BMP280;30790;52.030;7.110;2022-07-06T11:53:49;101760.88;;;22.19
41654;BMP280;30790;52.030;7.110;2022-07-06T11:56:15;101756.66;;;22.17
41654;BMP280;30790;52.030;7.110;2022-07-06T11:58:44;101742.28;;;22.10
41654;BMP280;30790;52.030;7.110;2022-07-06T12:01:12;101764.19;;;22.22
41654;BMP280;30790;52.030;7.110;2022-07-06T12:03:38;101750.75;;;22.20
41654;BMP280;30790;52.030;7.110;2022-07-06T12:06:05;101750.75;;;22.20
41654;BMP280;30790;52.030;7.110;2022-07-06T12:08:31;101754.94;;;22.23
41654;BMP280;30790;52.030;7.110;2022-07-06T12:10:59;101737.75;;;22.15
41654;BMP280;30790;52.030;7.110;2022-07-06T12:13:24;101735.97;;;22.09
41654;BMP280;30790;52.030;7.110;2022-07-06T12:15:50;101720.41;;;22.10
41654;BMP280;30790;52.030;7.110;2022-07-06T12:18:15;101748.63;;;22.22
41654;BMP280;30790;52.030;7.110;2022-07-06T12:20:41;101744.22;;;22.21
41654;BMP280;30790;52.030;7.110;2022-07-06T12:23:07;101741.50;;;22.21
41654;BMP280;30790;52.030;7.110;2022-07-06T12:25:34;101734.94;;;22.22
41654;BMP280;30790;52.030;7.110;2022-07-06T12:28:00;101730.56;;;22.21
41654;BMP280;30790;52.030;7.110;2022-07-06T12:30:26;101730.91;;;22.25
41654;BMP280;30790;52.030;7.110;2022-07-06T12:33:10;101730.91;;;22.25
41654;BMP280;30790;52.030;7.110;2022-07-06T12:35:36;101724.84;;;22.23
41654;BMP280;30790;52.030;7.110;2022-07-06T12:38:01;101730.69;;;22.26
41654;BMP280;30790;52.030;7.110;2022-07-06T12:40:27;101713.91;;;22.23
41654;BMP280;30790;52.030;7.110;2022-07-06T12:42:56;101722.72;;;22.25
41654;BMP280;30790;52.030;7.110;2022-07-06T12:45:31;101719.72;;;22.26
41654;BMP280;30790;52.030;7.110;2022-07-06T12:48:04;101704.88;;;22.22
41654;BMP280;30790;52.030;7.110;2022-07-06T12:50:35;101707.72;;;22.27
41654;BMP280;30790;52.030;7.110;2022-07-06T12:53:02;101708.19;;;22.24
41654;BMP280;30790;52.030;7.110;2022-07-06T12:55:28;101702.84;;;22.29
41654;BMP280;30790;52.030;7.110;2022-07-06T12:57:55;101701.78;;;22.30
41654;BMP280;30790;52.030;7.110;2022-07-06T13:00:21;101689.66;;;22.26
41654;BMP280;30790;52.030;7.110;2022-07-06T13:02:52;101700.13;;;22.29
41654;BMP280;30790;52.030;7.110;2022-07-06T13:05:26;101698.69;;;22.27
41654;BMP280;30790;52.030;7.110;2022-07-06T13:07:56;101704.50;;;22.30
41654;BMP280;30790;52.030;7.110;2022-07-06T13:10:23;101701.78;;;22.30
41654;BMP280;30790;52.030;7.110;2022-07-06T13:12:49;101697.38;;;22.29
41654;BMP280;30790;52.030;7.110;2022-07-06T13:15:15;101704.50;;;22.30
41654;BMP280;30790;52.030;7.110;2022-07-06T13:17:41;101712.50;;;22.32
41654;BMP280;30790;52.030;7.110;2022-07-06T13:20:11;101704.75;;;22.29
41654;BMP280;30790;52.030;7.110;2022-07-06T13:22:37;101706.66;;;22.28
41654;BMP280;30790;52.030;7.110;2022-07-06T13:25:03;101710.22;;;22.29
41654;BMP280;30790;52.030;7.110;2022-07-06T13:27:29;101712.72;;;22.30
41654;BMP280;30790;52.030;7.110;2022-07-06T13:29:55;101715.47;;;22.30
41654;BMP280;30790;52.030;7.110;2022-07-06T13:32:21;101703.09;;;22.28
41654;BMP280;30790;52.030;7.110;2022-07-06T13:34:47;101698.44;;;22.28
41654;BMP280;30790;52.030;7.110;2022-07-06T13:37:13;101704.75;;;22.29
41654;BMP280;30790;52.030;7.110;2022-07-06T13:39:38;101690.13;;;22.23
41654;BMP280;30790;52.030;7.110;2022-07-06T13:42:03;101688.47;;;22.22
41654;BMP280;30790;52.030;7.110;2022-07-06T13:44:29;101685.13;;;22.20
41654;BMP280;30790;52.030;7.110;2022-07-06T13:46:54;101672.72;;;22.17
41654;BMP280;30790;52.030;7.110;2022-07-06T13:49:20;101681.31;;;22.21
41654;BMP280;30790;52.030;7.110;2022-07-06T13:51:46;101679.19;;;22.23
41654;BMP280;30790;52.030;7.110;2022-07-06T13:54:11;101673.94;;;22.22
41654;BMP280;30790;52.030;7.110;2022-07-06T13:56:38;101670.81;;;22.18
41654;BMP280;30790;52.030;7.110;2022-07-06T13:59:04;101680.72;;;22.19
41654;BMP280;30790;52.030;7.110;2022-07-06T14:01:29;101673.19;;;22.14
41654;BMP280;30790;52.030;7.110;2022-07-06T14:03:55;101679.88;;;22.18
41654;BMP280;30790;52.030;7.110;2022-07-06T14:06:20;101674.63;;;22.17